WMKKWIHH

Guest
Details From WMKK - Kuala Lumpur Intl - Sepang
To WIHH - Jakarta Halim Perdanakusuma Intl
Flight Number -
Tags Generated
Created
Modified
Stats Distance 626 nm / 1,159 km
Max Altitude 0 ft / 0 m
Waypoints 3
Social Downloads 2
Likes 0
Share VATSIM

Download

Looking for another format? Having issues loading an existing format? Contact us
Advertisement - Login to hide

Notes

Generated

Route

WMKK DKI18 WIHH

ID Type Via Altitude Latitude Longitude Leg Dist Tot Dist Heading (true) Name
O WMKK APT - 0 ft / 0 m 2.77828˚ 101.70172˚ - 0 nm - -
DKI18 FIX - 0 ft / 0 m -6.07081˚ 106.76275˚ 612 nm 612 nm 150° / 150° -
O WIHH APT - 0 ft / 0 m -6.27223˚ 106.87877˚ 13 nm 625 nm 150° / 150° -

Altitude Profile

Advertisement - Login to hide

Weather


0- 5 10 15 20 25 30 35+ Temperature / ° C

Clouds and Precipitation
Forecast for 2017-12-12 06:00 UTC. Updated 3 minutes ago

Ground ~20,000 ft ~40,000 ft Winds

WMKK

Details ICAO WMKK (KUL)
Name Kuala Lumpur Intl - Sepang
Region Malaysia (Peninsular Malaysia)
Timezone Asia/Kuala_Lumpur (UTC+8.0)
Stats Elevation 70 ft / 21 m (AMSL)
Location 2.745578° 101.709913°
Runways 2
Magnetic Variation 0.000° E

METAR

WMKK 120100Z VRB02KT 9000 FEW017CB SCT140 BKN280 27/24 Q1013 NOSIG

Decode

TAF

TAF WMKK 111700Z 1118/1300 07005KT 8000 FEW017CB SCT140 BKN280 TEMPO 1208/1212 3000 TSRA FEW015CB SCT018 BKN150

Decode

Departure Runways

ID Width Length Bearing (true) Bearing (mag) Surface Threshold Offset Overrun Length
14L 197 ft / 60 m 13,577 ft / 4,138 m 146.13° 146.13° Asphalt 500 ft / 152 m 0 ft / 0 m
14R 197 ft / 60 m 13,337 ft / 4,065 m 146.22° 146.22° Asphalt 500 ft / 152 m 0 ft / 0 m
32L 197 ft / 60 m 13,337 ft / 4,065 m 326.22° 326.22° Asphalt 500 ft / 152 m 0 ft / 0 m
32R 197 ft / 60 m 13,577 ft / 4,138 m 326.13° 326.13° Asphalt 500 ft / 152 m 0 ft / 0 m

WIHH

Details ICAO WIHH (HLP)
Name Jakarta Halim Perdanakusuma Intl
Region Indonesia
Timezone Asia/Jakarta (UTC+7.0)
Stats Elevation 84 ft / 26 m (AMSL)
Location -6.266608° 106.891117°
Runways 1
Magnetic Variation 0.650° E

METAR

WIHH 120100Z 25005KT 8000 FEW025 27/24 Q1012 NOSIG

Decode

TAF

Not found

Destination Runways

ID Width Length Bearing (true) Bearing (mag) Surface Threshold Offset Overrun Length
06 148 ft / 45 m 9,855 ft / 3,004 m 65.38° 64.73° Asphalt 0 ft / 0 m 0 ft / 0 m
24 148 ft / 45 m 9,855 ft / 3,004 m 245.38° 244.73° Asphalt 650 ft / 198 m 0 ft / 0 m

Approach Navaids

Runway Type Ident Frequency Range Bearing (true) Bearing (mag) Slope Elevation
24 Localiser IHAL 111.70 MHz 18 nm / 33 km 245.32° 244.67° - 87 ft / 27 m (AMSL)
24 Glidescope IHAL 111.70 MHz 10 nm / 19 km 245.38° 244.73° 3.00° 90 ft / 27 m (AMSL)
24 DME IHAL 111.70 MHz 18 nm / 33 km - - - 88 ft / 27 m (AMSL)

Popular Alternatives